Terminal Aerodrome Forecast
Issued by NWS Mt. Holly, NJ

Home | Current Version | Previous Version | Text Only | Print | Product List | Glossary On
Versions: 1 2 3 4 5 6 7 8 9 10 11 12 13 14 15 16 17 18 19 20 21 22 23 24 25 26 27
000
FTUS41 KPHI 282127 AAA
TAFACY
TAF AMD
KACY 282127Z 2821/2918 06009KT P6SM VCSH BKN018 OVC035
     FM290200 06010KT 2SM -DZ BR OVC005
     FM291200 07011KT P6SM OVC015=

USA.gov is the U.S. government's official web portal to all federal, state and local government web resources and services.